Time;durP1;ratioP1;P1;durP2;ratioP2;P2;SDS_P1;SDS_P2;PMS_P1;PMS_P2;Temp;Humidity;BMP_temperature;BMP_pressure;BME280_temperature;BME280_humidity;BME280_pressure;Samples;Min_cycle;Max_cycle;Signal;HPM_P1;HPM_P2
2023/01/25 00:01:39;;;;;;;5.90;2.97;;;;;;;2.25;55.69;100983.19;4933190;29;20035;-92
2023/01/25 00:04:05;;;;;;;6.00;3.28;;;;;;;2.16;56.11;100981.59;4927053;29;20035;-92
2023/01/25 00:06:30;;;;;;;6.03;3.25;;;;;;;2.25;56.39;101004.44;4908094;29;20066;-92
2023/01/25 00:08:56;;;;;;;7.68;3.33;;;;;;;2.32;56.07;101013.38;4941785;29;20035;-92
2023/01/25 00:11:21;;;;;;;6.57;3.40;;;;;;;2.27;56.59;101005.09;4926234;29;20039;-92
2023/01/25 00:13:47;;;;;;;10.02;3.05;;;;;;;2.07;57.34;100988.72;4942103;29;20039;-92
2023/01/25 00:16:12;;;;;;;5.57;3.28;;;;;;;2.24;57.09;100997.47;4941885;29;20054;-92
2023/01/25 00:18:38;;;;;;;6.25;3.72;;;;;;;2.15;56.15;100985.22;4941663;29;20035;-92
2023/01/25 00:21:16;;;;;;;4.72;3.05;;;;;;;2.32;56.28;101004.56;4942468;29;20035;-92
2023/01/25 00:23:42;;;;;;;5.30;3.00;;;;;;;2.33;56.22;101012.38;4941672;29;20506;-92
2023/01/25 00:26:07;;;;;;;5.68;2.80;;;;;;;2.18;55.91;100988.38;4938214;29;20103;-92
2023/01/25 00:28:33;;;;;;;5.97;3.00;;;;;;;2.33;56.65;101011.56;4895460;29;20050;-93
2023/01/25 00:30:59;;;;;;;6.32;3.25;;;;;;;2.23;56.88;100998.47;4931276;29;20040;-92
2023/01/25 00:33:37;;;;;;;6.50;3.30;;;;;;;2.25;55.92;100996.47;4906381;29;20502;-93
2023/01/25 00:36:37;;;;;;;4.85;2.78;;;;;;;2.29;56.64;101027.00;4939260;29;20046;-92
2023/01/25 00:39:03;;;;;;;4.07;2.38;;;;;;;2.34;56.16;101007.88;4951772;29;20434;-92
2023/01/25 00:41:28;;;;;;;5.57;3.08;;;;;;;2.17;56.13;100992.00;4922404;29;20119;-93
2023/01/25 00:43:54;;;;;;;4.45;2.83;;;;;;;2.30;55.19;100994.09;4908460;29;20099;-92
2023/01/25 00:46:19;;;;;;;5.93;2.83;;;;;;;2.35;55.61;100991.78;4909251;29;20055;-92
2023/01/25 00:48:45;;;;;;;6.38;3.15;;;;;;;2.36;54.57;101004.03;4925892;29;20051;-92
2023/01/25 00:51:10;;;;;;;3.83;2.42;;;;;;;2.15;54.87;100999.31;4910771;29;20031;-92
2023/01/25 00:53:36;;;;;;;4.90;2.80;;;;;;;2.36;54.51;101011.19;4926192;29;20497;-92
2023/01/25 00:56:01;;;;;;;4.68;2.47;;;;;;;2.45;54.28;100988.91;4909645;29;20122;-92
2023/01/25 00:58:27;;;;;;;6.00;2.70;;;;;;;2.30;54.83;100999.41;4909415;29;20028;-91
2023/01/25 01:00:53;;;;;;;5.22;2.65;;;;;;;2.38;54.11;100991.41;4910626;29;20043;-92
2023/01/25 01:03:18;;;;;;;6.93;2.53;;;;;;;2.35;55.35;100994.44;4925551;29;20075;-92
2023/01/25 01:05:44;;;;;;;6.53;2.92;;;;;;;2.31;55.02;100977.16;4908412;28;20043;-93
2023/01/25 01:08:10;;;;;;;7.80;3.42;;;;;;;2.23;55.37;100975.38;4908928;29;20035;-91
2023/01/25 01:10:35;;;;;;;5.30;2.53;;;;;;;2.33;55.01;100983.13;4909657;29;20130;-92
2023/01/25 01:13:01;;;;;;;4.47;2.58;;;;;;;2.27;55.20;100961.75;4925491;29;20490;-92
2023/01/25 01:15:26;;;;;;;5.63;2.92;;;;;;;2.17;55.64;100977.91;4908350;29;20470;-92
2023/01/25 01:17:52;;;;;;;5.65;2.67;;;;;;;2.31;55.10;100979.81;4925221;29;20465;-92
2023/01/25 01:20:17;;;;;;;6.40;2.70;;;;;;;2.17;55.13;100970.75;4925637;29;20035;-92
2023/01/25 01:22:43;;;;;;;6.28;3.03;;;;;;;2.27;55.16;100967.06;4925031;29;20501;-92
2023/01/25 01:25:09;;;;;;;9.35;2.85;;;;;;;2.15;55.28;100963.97;4908218;29;20073;-93
2023/01/25 01:27:35;;;;;;;3.85;2.40;;;;;;;2.20;55.58;100974.88;4909340;29;20063;-92
2023/01/25 01:30:00;;;;;;;4.18;2.58;;;;;;;2.17;54.87;100957.47;4909200;29;20015;-92
2023/01/25 01:32:26;;;;;;;4.63;2.80;;;;;;;2.18;54.56;100959.16;4924469;29;20525;-92
2023/01/25 01:34:51;;;;;;;5.22;2.63;;;;;;;2.30;55.03;100972.03;4909283;29;20035;-92
2023/01/25 01:37:16;;;;;;;6.07;3.20;;;;;;;2.24;54.96;100952.28;4924738;29;20027;-92
2023/01/25 01:39:42;;;;;;;5.90;2.90;;;;;;;2.27;55.24;100964.41;4924890;29;20058;-92
2023/01/25 01:42:07;;;;;;;5.97;3.17;;;;;;;2.19;56.26;100971.41;4923954;29;20034;-92
2023/01/25 01:44:49;;;;;;;5.43;3.10;;;;;;;2.15;56.55;100954.16;4924693;29;20482;-93
2023/01/25 01:47:28;;;;;;;5.35;3.28;;;;;;;2.19;56.34;100965.28;4911042;29;20059;-92
2023/01/25 01:50:02;;;;;;;6.70;2.90;;;;;;;2.27;56.47;100964.41;4891214;29;20106;-92
2023/01/25 01:52:29;;;;;;;5.95;3.28;;;;;;;2.33;56.13;100963.72;4891275;29;20411;-92
2023/01/25 01:55:00;;;;;;;5.00;3.25;;;;;;;2.28;56.43;100958.09;4890683;29;20035;-93
2023/01/25 01:57:31;;;;;;;5.20;2.85;;;;;;;2.42;56.69;100970.63;4905733;29;20040;-92
2023/01/25 02:00:00;;;;;;;7.60;3.60;;;;;;;2.25;56.73;100943.31;4905208;29;20039;-92
2023/01/25 02:02:25;;;;;;;5.25;3.33;;;;;;;2.24;57.23;100941.66;4890264;29;20440;-92
2023/01/25 02:04:51;;;;;;;5.32;3.22;;;;;;;2.42;56.39;100957.34;4889861;29;20039;-93
2023/01/25 02:07:31;;;;;;;6.50;3.40;;;;;;;2.43;57.13;100946.53;4898257;29;20075;-93
2023/01/25 02:09:58;;;;;;;6.32;3.58;;;;;;;2.29;57.07;100943.81;4894601;29;20024;-93
2023/01/25 02:12:23;;;;;;;4.57;2.55;;;;;;;2.47;57.11;100972.75;4901112;29;20166;-93
2023/01/25 02:14:50;;;;;;;4.75;2.83;;;;;;;2.38;56.45;100938.25;4907423;29;20042;-93
2023/01/25 02:17:19;;;;;;;3.83;2.50;;;;;;;2.48;56.35;100938.03;4923928;28;20472;-93
2023/01/25 02:20:01;;;;;;;6.85;3.22;;;;;;;2.68;55.48;100954.34;4893640;29;20038;-92
2023/01/25 02:22:39;;;;;;;4.68;2.90;;;;;;;2.35;55.84;100940.44;4919711;29;20039;-92
2023/01/25 02:25:09;;;;;;;5.60;2.53;;;;;;;2.62;54.94;100952.41;4912870;29;20031;-92
2023/01/25 02:27:37;;;;;;;4.72;2.60;;;;;;;2.69;55.43;100945.34;4924677;29;20039;-92
2023/01/25 02:30:03;;;;;;;5.55;2.80;;;;;;;2.55;55.66;100920.38;4908237;29;20451;-93
2023/01/25 02:32:28;;;;;;;5.32;3.03;;;;;;;2.58;55.58;100927.97;4941036;29;20034;-92
2023/01/25 02:34:54;;;;;;;3.90;2.22;;;;;;;2.40;55.77;100911.50;4923309;29;20046;-93
2023/01/25 02:37:19;;;;;;;6.15;2.60;;;;;;;2.42;56.92;100925.44;4924927;29;20521;-92
2023/01/25 02:39:45;;;;;;;4.68;2.58;;;;;;;2.52;56.29;100941.97;4923699;29;20043;-92
2023/01/25 02:42:10;;;;;;;3.70;2.42;;;;;;;2.21;56.77;100926.06;4924214;29;20031;-92
2023/01/25 02:44:36;;;;;;;3.38;2.22;;;;;;;2.17;56.57;100922.94;4923627;29;20035;-92
2023/01/25 02:47:01;;;;;;;4.25;2.47;;;;;;;2.27;56.70;100943.16;4924049;29;20035;-92
2023/01/25 02:49:27;;;;;;;3.63;2.10;;;;;;;2.26;56.42;100944.13;4933311;29;20450;-92
2023/01/25 02:51:56;;;;;;;3.90;2.50;;;;;;;2.17;56.54;100932.72;4924251;29;20028;-91
2023/01/25 02:54:22;;;;;;;3.60;2.25;;;;;;;2.25;56.38;100937.19;4923839;29;20035;-92
2023/01/25 02:56:47;;;;;;;4.18;2.50;;;;;;;2.29;56.49;100934.00;4939599;29;20042;-93
2023/01/25 02:59:12;;;;;;;5.40;2.65;;;;;;;2.55;56.08;100954.94;4940042;29;20118;-93
2023/01/25 03:01:39;;;;;;;5.45;2.55;;;;;;;2.53;55.45;100951.63;4939102;29;20039;-92
2023/01/25 03:04:04;;;;;;;6.05;3.25;;;;;;;2.52;56.38;100955.28;4939214;29;20108;-92
2023/01/25 03:06:30;;;;;;;6.88;2.80;;;;;;;2.36;56.18;100940.25;4939916;29;20035;-92
2023/01/25 03:08:56;;;;;;;5.10;2.88;;;;;;;2.34;56.36;100942.25;4934362;29;20059;-92
2023/01/25 03:11:21;;;;;;;3.63;2.55;;;;;;;2.33;56.87;100948.59;4919929;29;20054;-92
2023/01/25 03:13:47;;;;;;;6.75;3.40;;;;;;;2.27;56.89;100943.97;4911323;29;20036;-92
2023/01/25 03:16:12;;;;;;;4.63;2.65;;;;;;;2.33;57.25;100935.31;4904787;29;20042;-92
2023/01/25 03:18:39;;;;;;;4.90;3.00;;;;;;;2.31;56.85;100936.47;4888899;29;20035;-93
2023/01/25 03:21:09;;;;;;;5.03;2.90;;;;;;;2.30;56.63;100938.28;4912416;29;20128;-93
2023/01/25 03:23:35;;;;;;;4.03;2.65;;;;;;;2.27;56.93;100924.56;4923238;29;20134;-92
2023/01/25 03:26:11;;;;;;;6.97;3.00;;;;;;;2.54;55.78;100952.44;4923883;29;20094;-92
2023/01/25 03:28:37;;;;;;;6.70;3.05;;;;;;;2.29;56.69;100935.84;4940290;29;20031;-92
2023/01/25 03:31:02;;;;;;;5.18;3.30;;;;;;;2.19;57.61;100939.53;4926310;29;20032;-92
2023/01/25 03:33:28;;;;;;;5.72;3.50;;;;;;;2.23;57.25;100946.16;4927237;29;20035;-93
2023/01/25 03:35:54;;;;;;;4.13;2.80;;;;;;;2.29;56.84;100941.16;4943458;29;20039;-93
2023/01/25 03:38:19;;;;;;;5.68;3.20;;;;;;;2.25;57.72;100953.13;4942948;29;20118;-94
2023/01/25 03:40:45;;;;;;;7.35;2.97;;;;;;;2.04;58.02;100925.34;4942530;29;20034;-92
2023/01/25 03:43:11;;;;;;;5.22;3.45;;;;;;;2.16;57.79;100937.22;4942558;29;20035;-92
2023/01/25 03:45:36;;;;;;;6.80;3.17;;;;;;;2.00;58.55;100929.34;4943319;29;20027;-93
2023/01/25 03:48:02;;;;;;;6.25;3.80;;;;;;;2.29;58.31;100959.75;4942820;28;20042;-92
2023/01/25 03:50:28;;;;;;;4.80;2.58;;;;;;;2.21;57.65;100964.09;4926404;29;20494;-93
2023/01/25 03:53:09;;;;;;;6.55;3.40;;;;;;;2.04;58.15;100951.09;4926220;29;20031;-93
2023/01/25 03:55:34;;;;;;;4.88;3.30;;;;;;;1.87;59.29;100960.94;4914841;29;20106;-92
2023/01/25 03:58:00;;;;;;;4.45;2.88;;;;;;;1.80;59.34;100942.19;4926228;29;20031;-92
2023/01/25 04:00:25;;;;;;;5.22;3.10;;;;;;;1.99;58.96;100951.56;4921696;29;20518;-93
2023/01/25 04:02:51;;;;;;;6.45;3.65;;;;;;;2.10;58.81;100961.84;4903920;29;20047;-92
2023/01/25 04:05:16;;;;;;;7.80;3.58;;;;;;;2.06;60.21;100954.41;4922172;29;20031;-92
2023/01/25 04:07:42;;;;;;;6.63;3.22;;;;;;;1.99;59.11;100946.25;4915669;29;20099;-93
2023/01/25 04:10:08;;;;;;;5.28;3.05;;;;;;;1.94;59.27;100957.41;4907617;29;20031;-93
2023/01/25 04:12:33;;;;;;;5.30;2.80;;;;;;;1.80;59.30;100936.88;4892474;29;20487;-93
2023/01/25 04:14:59;;;;;;;6.68;3.15;;;;;;;1.96;59.73;100946.63;4891712;29;20043;-92
2023/01/25 04:17:24;;;;;;;4.63;2.65;;;;;;;1.99;58.75;100944.47;4923170;29;20063;-90
2023/01/25 04:19:50;;;;;;;8.38;3.35;;;;;;;1.93;58.58;100925.72;4907530;29;20028;-92
2023/01/25 04:22:15;;;;;;;7.50;3.17;;;;;;;1.96;58.87;100943.97;4905911;29;20039;-93
2023/01/25 04:24:41;;;;;;;3.65;2.60;;;;;;;1.84;58.87;100935.53;4928075;29;20031;-92
2023/01/25 04:27:07;;;;;;;6.22;2.97;;;;;;;2.06;58.98;100955.22;4926419;29;20031;-93
2023/01/25 04:29:33;;;;;;;8.93;3.53;;;;;;;1.98;58.79;100940.13;4926118;29;20038;-93
2023/01/25 04:31:59;;;;;;;6.75;3.65;;;;;;;2.01;58.62;100942.47;4925426;29;20058;-92
2023/01/25 04:34:25;;;;;;;7.10;3.08;;;;;;;1.96;58.40;100938.66;4910470;29;20066;-92
2023/01/25 04:36:50;;;;;;;5.78;3.17;;;;;;;2.15;58.40;100959.47;4912179;29;20035;-93
2023/01/25 04:39:16;;;;;;;4.78;2.72;;;;;;;2.15;58.28;100975.41;4911663;29;20039;-92
2023/01/25 04:41:41;;;;;;;4.22;2.80;;;;;;;2.11;58.93;100967.97;4926414;29;20106;-92
2023/01/25 04:44:07;;;;;;;7.40;3.20;;;;;;;2.00;58.91;100964.69;4911283;29;20032;-92
2023/01/25 04:46:32;;;;;;;7.30;3.80;;;;;;;2.13;58.78;100974.75;4926968;29;20557;-93
2023/01/25 04:48:58;;;;;;;5.50;3.00;;;;;;;2.00;58.46;100953.25;4926592;29;20055;-92
2023/01/25 04:51:23;;;;;;;3.88;2.97;;;;;;;1.96;58.96;100960.72;4910690;29;20422;-93
2023/01/25 04:53:49;;;;;;;3.97;2.55;;;;;;;1.95;58.99;100943.16;4926726;29;20035;-92
2023/01/25 04:56:14;;;;;;;5.65;3.13;;;;;;;1.90;59.21;100948.13;4909416;29;20042;-92
2023/01/25 04:58:40;;;;;;;10.50;3.80;;;;;;;1.96;59.03;100954.59;4910456;29;20050;-93
2023/01/25 05:01:06;;;;;;;8.23;3.20;;;;;;;1.83;59.17;100957.81;4910448;29;20063;-92
2023/01/25 05:03:31;;;;;;;18.52;5.25;;;;;;;1.97;59.61;100972.16;4910656;29;20031;-93
2023/01/25 05:05:57;;;;;;;4.75;2.88;;;;;;;1.96;59.35;100967.88;4925482;29;20057;-93
2023/01/25 05:08:22;;;;;;;7.30;3.53;;;;;;;2.14;59.23;100967.63;4910123;29;20023;-93
2023/01/25 05:10:48;;;;;;;7.00;3.67;;;;;;;2.02;58.52;100949.41;4924602;29;20035;-93
2023/01/25 05:13:16;;;;;;;6.50;3.65;;;;;;;1.93;58.84;100947.81;4911853;29;20031;-95
2023/01/25 05:15:42;;;;;;;6.53;3.88;;;;;;;1.93;59.12;100942.50;4926856;29;20031;-94
2023/01/25 05:18:07;;;;;;;5.93;3.40;;;;;;;2.16;59.34;100969.13;4926314;29;20042;-93
2023/01/25 05:20:33;;;;;;;10.10;3.90;;;;;;;2.13;59.08;100964.13;4925973;29;20269;-92
2023/01/25 05:22:58;;;;;;;8.98;3.35;;;;;;;2.17;59.00;100946.84;4926814;29;20035;-95
2023/01/25 05:28:08;;;;;;;5.80;3.17;;;;;;;2.00;59.43;100950.59;4931656;29;20042;-94
2023/01/25 05:30:36;;;;;;;6.25;3.78;;;;;;;2.27;58.73;100964.41;4910701;29;20043;-95
2023/01/25 05:33:01;;;;;;;5.22;3.25;;;;;;;2.13;58.50;100948.19;4910847;29;20074;-94
2023/01/25 05:35:27;;;;;;;7.05;3.28;;;;;;;2.15;58.24;100946.19;4908859;29;20075;-92
2023/01/25 05:37:58;;;;;;;5.32;3.33;;;;;;;2.23;58.76;100961.25;4906586;29;20047;-94
2023/01/25 05:40:25;;;;;;;6.60;3.15;;;;;;;2.30;58.37;100961.38;4922327;29;20047;-92
2023/01/25 05:42:55;;;;;;;9.05;5.43;;;;;;;2.34;58.38;100955.53;4906336;29;20059;-94
2023/01/25 05:45:20;;;;;;;9.18;4.18;;;;;;;2.28;59.22;100958.09;4925852;29;20039;-93
2023/01/25 05:47:46;;;;;;;6.55;3.67;;;;;;;2.38;59.26;100979.94;4926845;29;20043;-94
2023/01/25 05:50:11;;;;;;;7.53;4.18;;;;;;;2.39;59.80;100971.00;4941145;29;20047;-96
2023/01/25 05:52:37;;;;;;;16.73;4.45;;;;;;;2.42;60.54;100963.47;4927944;29;20083;-96
2023/01/25 05:55:05;;;;;;;5.72;3.33;;;;;;;2.32;61.30;100970.84;4929088;29;20062;-94
2023/01/25 05:57:31;;;;;;;5.60;3.00;;;;;;;2.17;61.35;100968.09;4944253;29;20038;-95
2023/01/25 06:00:03;;;;;;;4.10;2.55;;;;;;;2.26;61.55;100984.81;4926741;29;20043;-96
2023/01/25 06:02:28;;;;;;;5.53;3.28;;;;;;;2.00;60.86;100947.94;4929231;29;20038;-94
2023/01/25 06:04:54;;;;;;;6.03;3.28;;;;;;;1.93;61.77;100957.56;4908803;29;20035;-95
2023/01/25 06:07:19;;;;;;;5.97;2.80;;;;;;;2.23;61.77;100988.66;4926750;29;20102;-93
2023/01/25 06:09:45;;;;;;;5.22;3.30;;;;;;;1.96;62.68;100967.88;4910403;29;20517;-95
2023/01/25 06:12:10;;;;;;;6.82;3.33;;;;;;;2.07;62.45;100969.31;4910234;29;20035;-94
2023/01/25 06:14:39;;;;;;;8.60;3.90;;;;;;;2.18;61.64;100976.91;4912284;29;20130;-96
2023/01/25 06:17:06;;;;;;;8.73;4.18;;;;;;;2.27;62.13;101001.63;4917896;29;20035;-94
2023/01/25 06:19:31;;;;;;;10.75;5.80;;;;;;;1.93;61.97;100958.44;4941328;29;20038;-95
2023/01/25 06:22:07;;;;;;;20.05;11.43;;;;;;;2.20;61.45;100985.50;4928934;29;20047;-95
2023/01/25 06:24:35;;;;;;;7.63;4.22;;;;;;;2.17;61.40;100981.38;4927955;29;20049;-96
2023/01/25 06:27:01;;;;;;;9.70;3.95;;;;;;;2.20;61.10;100989.03;4917857;29;20480;-90
2023/01/25 06:29:26;;;;;;;8.25;4.00;;;;;;;2.29;60.64;100975.69;4904460;29;20110;-91
2023/01/25 06:39:33;;;;;;;7.13;4.50;;;;;;;1.95;61.47;100968.88;5006757;28;20054;-90
2023/01/25 06:42:05;;;;;;;7.43;3.85;;;;;;;2.06;61.10;100975.66;4951616;28;20057;-96
2023/01/25 06:44:31;;;;;;;7.85;4.20;;;;;;;2.11;60.54;100984.72;4969683;28;20038;-94
2023/01/25 06:46:56;;;;;;;8.40;4.55;;;;;;;2.09;61.16;100977.94;4938888;28;20042;-93
2023/01/25 06:49:22;;;;;;;7.60;4.63;;;;;;;2.16;61.85;100984.25;4957601;28;20092;-89
2023/01/25 06:51:47;;;;;;;9.85;5.22;;;;;;;2.10;60.66;100977.78;4965358;28;20539;-91
2023/01/25 06:54:13;;;;;;;8.10;4.68;;;;;;;2.43;59.87;100975.78;4966873;28;20034;-92
2023/01/25 06:56:38;;;;;;;11.30;5.45;;;;;;;2.57;59.23;100995.47;4969327;28;20022;-93
2023/01/25 06:59:04;;;;;;;10.30;5.28;;;;;;;2.47;59.95;100994.88;4952265;28;20038;-93
2023/01/25 07:01:30;;;;;;;7.65;4.65;;;;;;;2.57;60.35;100997.28;5000007;23;20065;-93
2023/01/25 07:03:57;;;;;;;15.55;4.93;;;;;;;2.50;60.11;100993.69;4990873;28;20120;-96
2023/01/25 07:06:25;;;;;;;10.90;5.50;;;;;;;2.38;60.11;100980.78;4962966;28;20034;-95
2023/01/25 07:08:53;;;;;;;8.77;4.93;;;;;;;2.50;59.91;100989.19;4967344;28;20031;-96
2023/01/25 07:11:22;;;;;;;80.47;9.23;;;;;;;2.45;60.06;100978.28;4956953;28;20039;-96
2023/01/25 07:13:47;;;;;;;7.90;4.65;;;;;;;2.30;60.37;100970.19;4957014;28;20086;-95
2023/01/25 07:16:18;;;;;;;6.10;3.95;;;;;;;2.37;59.91;101000.41;4933571;29;20039;-95
2023/01/25 07:18:44;;;;;;;8.80;4.15;;;;;;;2.46;60.23;100984.41;4970412;28;20073;-96
2023/01/25 07:21:21;;;;;;;10.82;6.88;;;;;;;2.66;59.65;100993.59;4950000;28;20043;-96
2023/01/25 07:23:49;;;;;;;11.80;6.10;;;;;;;2.29;60.12;100978.34;5000734;28;20047;-96
2023/01/25 07:26:18;;;;;;;6.00;3.80;;;;;;;2.50;60.56;101015.78;4963642;28;20030;-95
2023/01/25 07:28:50;;;;;;;8.07;3.97;;;;;;;2.67;59.51;101015.69;4970468;28;20042;-96
2023/01/25 07:31:23;;;;;;;7.93;4.40;;;;;;;2.53;60.10;100994.16;4965273;28;20039;-95
2023/01/25 07:33:52;;;;;;;9.77;5.75;;;;;;;2.54;59.14;100982.50;4950112;29;20046;-96
2023/01/25 07:36:24;;;;;;;12.35;7.93;;;;;;;2.48;60.29;100995.69;4934162;29;20043;-91
2023/01/25 07:38:54;;;;;;;10.25;4.78;;;;;;;2.62;59.32;100989.63;4951708;28;20134;-96
2023/01/25 07:41:45;;;;;;;7.60;4.63;;;;;;;2.88;58.70;101012.38;4921498;29;20044;-96
2023/01/25 07:44:23;;;;;;;14.43;7.80;;;;;;;2.57;59.29;100984.00;4908286;29;20044;-96
2023/01/25 07:46:49;;;;;;;23.88;14.35;;;;;;;2.57;60.11;100984.00;4876529;29;20040;-96
2023/01/25 07:49:17;;;;;;;9.98;5.30;;;;;;;2.37;59.88;101003.06;4877521;29;20166;-94
2023/01/25 07:51:58;;;;;;;16.58;7.15;;;;;;;2.23;61.08;100979.88;4895644;29;20065;-96
2023/01/25 07:54:24;;;;;;;94.63;42.72;;;;;;;2.27;61.33;100983.84;4879152;29;20070;-96
2023/01/25 07:56:53;;;;;;;20.30;10.52;;;;;;;2.63;59.95;100983.28;4892211;29;20053;-96
2023/01/25 07:59:25;;;;;;;16.55;7.93;;;;;;;2.80;59.60;100976.88;4897592;29;20037;-96
2023/01/25 08:07:30;;;;;;;8.48;4.80;;;;;;;2.94;58.67;100979.75;5006617;28;20058;-96
2023/01/25 08:09:57;;;;;;;7.15;4.15;;;;;;;2.91;58.59;100996.06;4972099;28;20489;-96
2023/01/25 08:12:26;;;;;;;8.30;4.22;;;;;;;2.72;59.63;100979.59;4975367;28;20030;-93
2023/01/25 08:14:52;;;;;;;8.43;4.97;;;;;;;2.82;58.72;100985.50;4956299;28;20046;-93
2023/01/25 08:17:18;;;;;;;8.18;4.43;;;;;;;2.82;59.30;100980.19;4948750;28;20026;-96
2023/01/25 08:19:46;;;;;;;11.07;5.15;;;;;;;2.94;58.83;100979.75;4954397;28;20042;-96
2023/01/25 08:22:14;;;;;;;8.20;5.13;;;;;;;2.77;58.44;100984.38;4957804;28;20039;-95
2023/01/25 08:24:43;;;;;;;13.98;8.02;;;;;;;2.81;59.52;100994.47;4957539;28;20097;-94
2023/01/25 08:27:12;;;;;;;10.95;6.00;;;;;;;2.72;59.25;100963.63;4957821;28;20089;-96
2023/01/25 08:29:53;;;;;;;;;;;;;;;;;;;;;
2023/01/25 08:32:29;;;;;;;10.43;5.40;;;;;;;2.49;59.95;100971.59;4988522;28;20105;-96
2023/01/25 08:35:16;;;;;;;14.68;7.30;;;;;;;2.65;59.42;100975.13;4980190;28;20097;-96
2023/01/25 08:38:33;;;;;;;19.05;6.82;;;;;;;2.15;61.19;100964.78;4995668;28;20141;-96
2023/01/25 09:03:34;;;;;;;12.88;5.57;;;;;;;2.49;59.60;100957.44;5221042;23;20105;-96
2023/01/25 09:15:11;;;;;;;11.43;5.72;;;;;;;3.38;57.21;100982.53;5054577;23;20118;-96
2023/01/25 09:17:57;;;;;;;12.57;5.53;;;;;;;3.19;56.49;100943.91;4992279;28;20054;-96
2023/01/25 09:20:23;;;;;;;7.43;3.92;;;;;;;3.63;54.91;100964.47;4952261;28;20070;-94
2023/01/25 09:22:48;;;;;;;8.40;4.68;;;;;;;3.47;54.80;100950.50;4945224;28;20038;-93
2023/01/25 09:25:24;;;;;;;9.50;5.05;;;;;;;3.52;55.43;100937.44;4948674;28;20045;-95
2023/01/25 09:27:53;;;;;;;8.65;4.93;;;;;;;3.04;56.20;100933.25;4972157;28;20034;-95
2023/01/25 09:30:27;;;;;;;11.68;5.00;;;;;;;3.49;55.16;100951.97;4964277;28;20041;-94
2023/01/25 09:33:00;;;;;;;10.45;4.60;;;;;;;3.59;54.88;100938.34;4946280;28;20039;-96
2023/01/25 09:35:31;;;;;;;9.00;4.85;;;;;;;3.70;54.26;100935.25;4966799;28;20043;-96
2023/01/25 09:37:57;;;;;;;9.15;4.72;;;;;;;3.37;54.16;100926.78;4966646;28;20046;-96
2023/01/25 09:40:23;;;;;;;6.95;3.97;;;;;;;3.32;53.75;100914.03;4953012;28;20100;-96
2023/01/25 09:43:33;;;;;;;14.73;5.97;;;;;;;3.43;53.99;100905.56;4947599;28;20046;-95
2023/01/25 09:45:58;;;;;;;9.50;4.47;;;;;;;3.53;53.03;100897.31;4969980;28;20038;-95
2023/01/25 09:48:33;;;;;;;8.43;4.45;;;;;;;3.64;53.44;100910.16;4941428;28;20035;-96
2023/01/25 09:51:49;;;;;;;10.68;5.32;;;;;;;3.57;53.36;100895.94;4942630;28;20050;-96
2023/01/25 09:54:17;;;;;;;9.40;4.55;;;;;;;3.53;53.86;100899.13;4961408;28;20039;-94
2023/01/25 09:56:50;;;;;;;9.57;4.30;;;;;;;3.17;53.93;100881.25;4952710;28;20125;-95
2023/01/25 09:59:43;;;;;;;8.20;4.40;;;;;;;3.33;53.10;100885.56;4950920;28;20041;-96
2023/01/25 10:02:33;;;;;;;8.38;5.03;;;;;;;3.66;52.75;100915.31;4972583;28;20044;-95
2023/01/25 10:05:22;;;;;;;13.15;6.70;;;;;;;3.50;53.10;100873.72;4982418;28;20371;-93
2023/01/25 10:07:50;;;;;;;13.27;7.60;;;;;;;3.67;53.13;100908.13;4961992;28;20038;-94
2023/01/25 10:10:36;;;;;;;8.85;5.53;;;;;;;3.33;53.90;100882.91;4970728;28;20050;-95
2023/01/25 10:16:40;;;;;;;8.63;5.70;;;;;;;3.36;52.50;100864.75;4942821;28;20111;-96
2023/01/25 10:36:39;;;;;;;10.23;4.55;;;;;;;3.95;51.88;100828.34;4974278;29;20065;-96
2023/01/25 10:47:49;;;;;;;12.95;4.90;;;;;;;4.10;48.90;100793.66;4991397;28;20110;-96
2023/01/25 10:50:45;;;;;;;10.52;4.35;;;;;;;4.08;51.05;100830.31;4950533;28;20073;-96
2023/01/25 10:59:04;;;;;;;11.77;6.60;;;;;;;4.00;54.13;100810.75;4957201;28;20309;-96
2023/01/25 11:01:41;;;;;;;13.98;6.93;;;;;;;4.00;54.34;100802.75;4861264;29;20034;-96
2023/01/25 11:08:03;;;;;;;;;;;;;;;;;;;;;
2023/01/25 11:10:51;;;;;;;13.80;6.53;;;;;;;3.65;54.27;100756.50;4878404;29;20071;-96
2023/01/25 11:17:01;;;;;;;10.65;5.80;;;;;;;4.09;53.58;100781.31;5346841;23;20054;31
2023/01/25 11:56:58;;;;;;;10.60;4.90;;;;;;;3.49;52.84;100741.59;5022329;28;20070;-93
2023/01/25 12:00:15;;;;;;;12.38;5.55;;;;;;;3.49;53.77;100738.94;4971740;28;20045;-94
2023/01/25 12:02:48;;;;;;;6.75;4.05;;;;;;;3.57;53.14;100724.66;4983384;28;20042;-96
2023/01/25 12:05:44;;;;;;;8.82;4.25;;;;;;;3.62;53.13;100738.25;4986528;28;20038;-93
2023/01/25 12:08:38;;;;;;;11.55;6.25;;;;;;;3.66;52.00;100744.84;4981479;28;20073;-95
2023/01/25 12:11:33;;;;;;;10.10;4.25;;;;;;;3.65;51.48;100743.19;5002863;28;20032;-96
2023/01/25 12:58:34;;;;;;;9.40;4.00;;;;;;;3.71;53.62;100728.28;4956318;29;20066;-96
2023/01/25 13:01:33;;;;;;;;;;;;;;;;;;;;;
2023/01/25 13:04:28;;;;;;;9.55;5.00;;;;;;;3.50;53.83;100689.97;4972186;29;20051;-96
2023/01/25 13:07:43;;;;;;;8.80;4.07;;;;;;;3.47;53.86;100693.03;4955180;29;20066;-96
2023/01/25 13:10:24;;;;;;;18.98;8.52;;;;;;;3.59;54.84;100723.47;5278519;23;20059;-96
2023/01/25 13:15:55;;;;;;;15.65;7.25;;;;;;;3.37;55.36;100684.53;5295264;23;20118;-96
2023/01/25 13:19:28;;;;;;;10.68;5.40;;;;;;;3.26;55.31;100672.53;4918466;29;20108;-96
2023/01/25 13:31:35;;;;;;;8.35;4.18;;;;;;;3.60;55.54;100700.31;5005712;28;20050;-96
2023/01/25 13:35:03;;;;;;;9.48;5.50;;;;;;;3.18;56.25;100670.81;4975013;28;20061;-96
2023/01/25 13:44:22;;;;;;;9.90;4.43;;;;;;;2.98;57.72;100697.19;5038109;23;20057;-96
2023/01/25 13:46:47;;;;;;;11.35;5.18;;;;;;;3.08;57.42;100672.13;4947932;28;20058;-95
2023/01/25 13:49:37;;;;;;;9.02;4.63;;;;;;;3.13;56.68;100669.72;4932794;28;20428;-96
2023/01/25 13:52:05;;;;;;;7.25;4.35;;;;;;;2.92;57.49;100660.66;4951083;28;20046;-93
2023/01/25 13:54:51;;;;;;;7.35;4.00;;;;;;;3.06;57.52;100690.13;4973308;28;20070;-96
2023/01/25 13:57:30;;;;;;;8.27;4.22;;;;;;;2.86;58.01;100655.28;5063821;23;20058;-95
2023/01/25 14:07:00;;;;;;;;;;;;;;;;;;;;;
2023/01/25 14:18:54;;;;;;;17.53;7.10;;;;;;;2.78;60.49;100680.13;5016888;28;20058;-96
2023/01/25 14:24:44;;;;;;;10.80;5.93;;;;;;;2.88;59.71;100677.19;5013342;23;20039;31
2023/01/25 14:28:02;;;;;;;13.52;5.80;;;;;;;2.52;59.66;100652.19;5143126;23;20050;-96
2023/01/25 14:37:31;;;;;;;10.82;6.18;;;;;;;2.81;60.74;100683.25;4988920;28;20043;-96
2023/01/25 14:43:26;;;;;;;10.50;5.10;;;;;;;2.41;60.87;100658.81;5060913;23;20034;-94
2023/01/25 14:45:55;;;;;;;11.38;5.78;;;;;;;2.40;60.90;100674.94;4938634;29;20134;-96
2023/01/25 14:57:49;;;;;;;12.95;5.90;;;;;;;2.55;60.94;100672.25;5024475;23;20047;-94
2023/01/25 15:00:37;;;;;;;12.10;6.07;;;;;;;2.51;60.43;100666.50;5028679;23;20125;-96
2023/01/25 15:03:37;;;;;;;9.93;5.65;;;;;;;2.43;61.72;100712.59;4959559;28;20058;-96
2023/01/25 15:06:11;;;;;;;12.68;6.05;;;;;;;2.56;61.33;100704.00;4950383;28;20035;-96
2023/01/25 15:08:39;;;;;;;9.55;5.72;;;;;;;2.53;61.38;100683.09;4939137;28;20038;-96
2023/01/25 15:11:44;;;;;;;14.98;6.00;;;;;;;2.48;61.48;100692.63;4935872;29;20056;-96
2023/01/25 15:26:14;;;;;;;11.93;6.40;;;;;;;2.31;61.50;100706.09;5011550;28;20081;-96
2023/01/25 15:31:17;;;;;;;10.65;6.18;;;;;;;2.02;62.65;100661.69;4973560;28;20055;-96
2023/01/25 15:34:55;;;;;;;11.45;5.38;;;;;;;2.10;61.61;100653.66;4893791;29;20064;-96
2023/01/25 15:41:03;;;;;;;;;;;;;;;;;;;;;
2023/01/25 15:43:51;;;;;;;13.80;6.95;;;;;;;2.29;61.30;100672.72;4986278;28;20066;-96
2023/01/25 15:46:36;;;;;;;12.57;6.78;;;;;;;2.52;61.13;100673.47;4961588;28;20035;-96
2023/01/25 15:49:05;;;;;;;13.48;7.07;;;;;;;2.12;61.31;100669.41;4962855;28;20035;-96
2023/01/25 15:51:32;;;;;;;18.95;6.53;;;;;;;2.50;60.55;100683.47;4933624;28;20046;-96
2023/01/25 15:54:15;;;;;;;15.02;7.80;;;;;;;2.61;60.75;100685.69;4935250;28;20121;-95
2023/01/25 15:56:43;;;;;;;15.15;7.00;;;;;;;2.54;60.17;100683.94;4934870;28;20039;-95
2023/01/25 15:59:19;;;;;;;15.60;5.95;;;;;;;2.67;59.72;100670.78;4949582;28;20043;-95
2023/01/25 16:01:44;;;;;;;12.63;6.57;;;;;;;2.82;59.63;100684.94;4934176;28;20050;-96
2023/01/25 16:22:24;;;;;;;11.88;6.40;;;;;;;2.60;60.45;100678.69;4958434;28;20059;-95
2023/01/25 16:24:52;;;;;;;10.95;6.00;;;;;;;2.72;60.68;100678.22;4934025;29;20050;-96